createdAt,value
2022-10-10T00:01:44.847Z,1.38
2022-10-10T00:04:11.288Z,1.58
2022-10-10T00:06:37.744Z,1.27
2022-10-10T00:09:05.335Z,1.42
2022-10-10T00:11:31.824Z,1.40
2022-10-10T00:13:58.611Z,1.30
2022-10-10T00:16:25.058Z,1.40
2022-10-10T00:18:52.199Z,1.40
2022-10-10T00:21:18.649Z,1.42
2022-10-10T00:23:45.041Z,1.42
2022-10-10T00:26:17.605Z,1.20
2022-10-10T00:28:45.159Z,1.20
2022-10-10T00:31:11.561Z,1.38
2022-10-10T00:33:38.033Z,1.20
2022-10-10T00:36:05.029Z,1.10
2022-10-10T00:38:32.560Z,1.10
2022-10-10T00:40:58.984Z,1.25
2022-10-10T00:43:26.094Z,0.98
2022-10-10T00:45:52.865Z,0.98
2022-10-10T00:48:24.283Z,1.00
2022-10-10T00:50:52.259Z,1.10
2022-10-10T00:53:20.533Z,1.10
2022-10-10T00:55:47.815Z,1.30
2022-10-10T00:58:14.718Z,1.20
2022-10-10T01:00:41.315Z,0.93
2022-10-10T01:03:07.800Z,1.20
2022-10-10T01:05:34.397Z,1.13
2022-10-10T01:08:02.340Z,1.30
2022-10-10T01:10:29.024Z,1.00
2022-10-10T01:13:07.553Z,1.10
2022-10-10T01:15:36.990Z,0.93
2022-10-10T01:18:08.358Z,1.02
2022-10-10T01:20:44.627Z,1.10
2022-10-10T01:23:20.360Z,1.20
2022-10-10T01:26:13.225Z,0.98
2022-10-10T01:28:39.778Z,1.40
2022-10-10T01:31:08.476Z,1.25
2022-10-10T01:33:37.877Z,1.00
2022-10-10T01:36:15.341Z,0.80
2022-10-10T01:38:43.635Z,1.08
2022-10-10T01:41:14.860Z,1.08
2022-10-10T01:43:41.647Z,0.98
2022-10-10T01:46:15.760Z,0.90
2022-10-10T01:48:42.984Z,0.73
2022-10-10T01:51:09.419Z,0.80
2022-10-10T01:53:54.314Z,0.90
2022-10-10T01:56:33.002Z,1.08
2022-10-10T01:58:59.405Z,1.13
2022-10-10T02:01:46.084Z,1.10
2022-10-10T02:04:31.322Z,0.95
2022-10-10T02:07:01.858Z,1.13
2022-10-10T02:09:39.889Z,0.80
2022-10-10T02:12:08.514Z,1.20
2022-10-10T02:14:38.579Z,0.90
2022-10-10T02:17:07.862Z,1.10
2022-10-10T02:19:35.083Z,1.20
2022-10-10T02:22:01.898Z,1.10
2022-10-10T02:24:28.460Z,0.90
2022-10-10T02:27:01.738Z,0.90
2022-10-10T02:29:31.421Z,0.80
2022-10-10T02:32:03.954Z,1.00
2022-10-10T02:34:33.896Z,0.75
2022-10-10T02:37:01.450Z,0.90
2022-10-10T02:39:30.322Z,0.70
2022-10-10T02:41:56.943Z,0.88
2022-10-10T02:44:24.306Z,1.20
2022-10-10T02:46:50.958Z,0.95
2022-10-10T02:49:23.321Z,0.93
2022-10-10T02:51:49.770Z,0.80
2022-10-10T02:54:16.193Z,1.00
2022-10-10T02:56:42.593Z,1.00
2022-10-10T02:59:08.979Z,0.80
2022-10-10T03:01:35.682Z,0.98
2022-10-10T03:04:02.703Z,1.02
2022-10-10T03:06:29.239Z,0.98
2022-10-10T03:08:55.692Z,1.20
2022-10-10T03:11:22.105Z,1.23
2022-10-10T03:13:48.540Z,1.10
2022-10-10T03:16:15.088Z,0.90
2022-10-10T03:18:41.571Z,0.98
2022-10-10T03:21:07.974Z,1.02
2022-10-10T03:23:35.481Z,0.98
2022-10-10T03:26:02.574Z,1.00
2022-10-10T03:28:29.099Z,0.95
2022-10-10T03:30:55.964Z,1.20
2022-10-10T03:33:22.660Z,1.00
2022-10-10T03:35:49.258Z,0.90
2022-10-10T03:38:16.024Z,1.20
2022-10-10T03:40:43.499Z,0.98
2022-10-10T03:43:11.445Z,1.05
2022-10-10T03:45:38.317Z,1.00
2022-10-10T03:48:05.074Z,1.10
2022-10-10T03:50:32.017Z,1.20
2022-10-10T03:52:58.427Z,1.05
2022-10-10T03:55:24.894Z,1.17
2022-10-10T03:57:51.337Z,1.30
2022-10-10T04:00:17.801Z,1.20
2022-10-10T04:02:44.187Z,1.10
2022-10-10T04:05:10.682Z,1.17
2022-10-10T04:07:37.165Z,1.38
2022-10-10T04:10:04.229Z,1.20
2022-10-10T04:12:30.609Z,1.20
2022-10-10T04:14:57.066Z,1.20
2022-10-10T04:17:23.473Z,1.10
2022-10-10T04:19:49.887Z,1.10
2022-10-10T04:22:16.651Z,0.80
2022-10-10T04:24:43.054Z,1.20
2022-10-10T04:27:09.606Z,1.20
2022-10-10T04:29:36.302Z,1.10
2022-10-10T04:32:02.892Z,1.10
2022-10-10T04:34:29.356Z,1.25
2022-10-10T04:36:55.796Z,0.93
2022-10-10T04:39:22.323Z,1.05
2022-10-10T04:41:51.558Z,1.13
2022-10-10T04:44:18.657Z,1.00
2022-10-10T04:46:45.670Z,1.48
2022-10-10T04:49:12.461Z,0.90
2022-10-10T04:51:38.848Z,1.20
2022-10-10T04:54:05.290Z,1.15
2022-10-10T04:56:31.693Z,1.10
2022-10-10T04:58:58.140Z,1.20
2022-10-10T05:01:24.568Z,1.10
2022-10-10T05:03:51.081Z,0.98
2022-10-10T05:06:17.507Z,1.00
2022-10-10T05:08:43.930Z,1.20
2022-10-10T05:11:10.332Z,1.10
2022-10-10T05:13:36.731Z,1.10
2022-10-10T05:16:03.433Z,1.00
2022-10-10T05:18:29.860Z,1.00
2022-10-10T05:21:01.034Z,1.30
2022-10-10T05:23:32.772Z,1.00
2022-10-10T05:25:59.163Z,1.10
2022-10-10T05:28:25.635Z,1.10
2022-10-10T05:30:52.383Z,1.38
2022-10-10T05:33:18.834Z,1.33
2022-10-10T05:35:45.280Z,1.38
2022-10-10T05:38:11.686Z,1.30
2022-10-10T05:40:41.568Z,1.10
2022-10-10T05:43:08.106Z,1.00
2022-10-10T05:45:34.491Z,1.33
2022-10-10T05:48:00.955Z,1.17
2022-10-10T05:50:32.685Z,1.40
2022-10-10T05:52:59.221Z,1.45
2022-10-10T05:55:25.641Z,1.27
2022-10-10T05:57:52.351Z,1.33
2022-10-10T06:00:18.799Z,1.20
2022-10-10T06:02:45.283Z,1.40
2022-10-10T06:05:11.867Z,1.23
2022-10-10T06:08:02.444Z,1.33
2022-10-10T06:10:24.729Z,1.30
2022-10-10T06:12:51.614Z,1.30
2022-10-10T06:15:18.191Z,1.33
2022-10-10T06:17:44.621Z,1.50
2022-10-10T06:20:11.061Z,1.30
2022-10-10T06:22:37.454Z,1.40
2022-10-10T06:25:03.972Z,1.40
2022-10-10T06:27:30.423Z,1.52
2022-10-10T06:29:56.822Z,1.50
2022-10-10T06:32:24.140Z,1.13
2022-10-10T06:34:50.734Z,1.58
2022-10-10T06:37:17.111Z,1.45
2022-10-10T06:39:43.577Z,1.67
2022-10-10T06:42:10.096Z,1.38
2022-10-10T06:44:36.513Z,1.40
2022-10-10T06:47:02.940Z,1.35
2022-10-10T06:49:29.762Z,1.50
2022-10-10T06:51:56.196Z,1.27
2022-10-10T06:54:22.780Z,1.42
2022-10-10T06:56:49.631Z,1.30
2022-10-10T06:59:16.058Z,1.50
2022-10-10T07:01:42.565Z,1.38
2022-10-10T07:04:09.756Z,1.30
2022-10-10T07:06:36.497Z,1.40
2022-10-10T07:09:02.951Z,1.35
2022-10-10T07:11:30.162Z,1.30
2022-10-10T07:13:56.536Z,1.27
2022-10-10T07:16:23.254Z,1.55
2022-10-10T07:18:49.675Z,1.30
2022-10-10T07:21:16.105Z,1.52
2022-10-10T07:23:42.629Z,1.55
2022-10-10T07:26:11.303Z,1.30
2022-10-10T07:28:37.750Z,1.50
2022-10-10T07:31:05.723Z,1.30
2022-10-10T07:33:33.307Z,1.50
2022-10-10T07:36:00.090Z,1.52
2022-10-10T07:38:26.584Z,1.67
2022-10-10T07:40:53.061Z,1.60
2022-10-10T07:43:19.469Z,1.90
2022-10-10T07:45:45.883Z,1.75
2022-10-10T07:48:12.702Z,1.65
2022-10-10T07:50:43.328Z,2.05
2022-10-10T07:53:10.291Z,1.90
2022-10-10T07:55:40.441Z,2.05
2022-10-10T07:58:06.952Z,1.98
2022-10-10T08:00:35.539Z,1.95
2022-10-10T08:03:02.088Z,1.90
2022-10-10T08:05:29.199Z,2.10
2022-10-10T08:07:55.594Z,2.05
2022-10-10T08:10:22.008Z,1.73
2022-10-10T08:12:48.387Z,2.00
2022-10-10T08:15:15.012Z,1.90
2022-10-10T08:17:41.422Z,1.80
2022-10-10T08:20:08.016Z,2.13
2022-10-10T08:22:34.401Z,1.92
2022-10-10T08:25:00.797Z,2.30
2022-10-10T08:27:27.443Z,2.40
2022-10-10T08:29:53.816Z,2.20
2022-10-10T08:32:21.342Z,2.28
2022-10-10T08:34:47.770Z,2.28
2022-10-10T08:37:14.177Z,2.42
2022-10-10T08:39:40.567Z,2.60
2022-10-10T08:42:07.000Z,2.58
2022-10-10T08:44:37.737Z,3.10
2022-10-10T08:47:09.857Z,2.83
2022-10-10T08:49:48.502Z,3.00
2022-10-10T08:52:22.506Z,3.90
2022-10-10T08:54:49.789Z,3.35
2022-10-10T08:57:27.881Z,3.30
2022-10-10T09:00:01.800Z,3.78
2022-10-10T09:02:43.617Z,4.15
2022-10-10T09:05:22.409Z,4.00
2022-10-10T09:08:11.756Z,3.53
2022-10-10T09:10:41.257Z,7.93
2022-10-10T09:13:16.880Z,25.90
2022-10-10T09:15:49.163Z,34.63
2022-10-10T09:21:00.451Z,29.13
2022-10-10T09:23:36.416Z,26.35
2022-10-10T09:26:13.292Z,27.65
2022-10-10T09:28:58.631Z,30.83
2022-10-10T09:31:36.369Z,32.08
2022-10-10T09:34:08.956Z,29.98
2022-10-10T09:36:37.374Z,29.40
2022-10-10T09:39:03.759Z,27.38
2022-10-10T09:41:35.129Z,26.75
2022-10-10T09:44:05.494Z,23.43
2022-10-10T09:46:31.912Z,23.42
2022-10-10T09:48:58.322Z,24.58
2022-10-10T09:51:24.742Z,21.42
2022-10-10T09:53:51.144Z,20.70
2022-10-10T09:56:19.527Z,18.70
2022-10-10T09:58:47.873Z,20.13
2022-10-10T10:01:17.361Z,15.80
2022-10-10T10:03:44.223Z,15.13
2022-10-10T10:06:14.580Z,16.30
2022-10-10T10:08:41.585Z,15.55
2022-10-10T10:11:21.469Z,15.15
2022-10-10T10:13:53.611Z,15.32
2022-10-10T10:16:20.058Z,15.18
2022-10-10T10:18:47.867Z,13.98
2022-10-10T10:21:24.290Z,14.23
2022-10-10T10:23:50.712Z,12.43
2022-10-10T10:26:19.614Z,11.55
2022-10-10T10:28:47.274Z,10.68
2022-10-10T10:31:24.551Z,12.13
2022-10-10T10:34:09.771Z,10.32
2022-10-10T10:36:42.227Z,11.95
2022-10-10T10:39:11.791Z,10.52
2022-10-10T10:41:45.870Z,9.15
2022-10-10T10:44:22.681Z,9.65
2022-10-10T10:46:49.061Z,9.68
2022-10-10T10:49:16.766Z,8.65
2022-10-10T10:52:07.843Z,9.43
2022-10-10T10:54:52.653Z,9.20
2022-10-10T10:57:36.914Z,8.52
2022-10-10T11:00:21.880Z,7.63
2022-10-10T11:03:05.846Z,7.53
2022-10-10T11:05:43.846Z,7.88
2022-10-10T11:08:28.965Z,7.03
2022-10-10T11:11:14.310Z,6.70
2022-10-10T11:13:47.015Z,6.40
2022-10-10T11:16:46.884Z,6.35
2022-10-10T11:19:11.517Z,7.30
2022-10-10T11:21:41.304Z,6.53
2022-10-10T11:24:11.846Z,6.35
2022-10-10T11:26:40.941Z,5.13
2022-10-10T11:29:19.645Z,6.05
2022-10-10T11:32:08.225Z,5.82
2022-10-10T11:35:02.081Z,5.70
2022-10-10T11:37:31.091Z,5.72
2022-10-10T11:39:59.832Z,4.72
2022-10-10T11:42:46.488Z,4.88
2022-10-10T11:45:19.298Z,5.13
2022-10-10T11:47:57.940Z,4.90
2022-10-10T11:50:27.668Z,4.35
2022-10-10T11:53:06.290Z,4.35
2022-10-10T11:55:52.069Z,4.75
2022-10-10T11:58:25.271Z,3.95
2022-10-10T12:00:57.886Z,3.80
2022-10-10T12:03:25.456Z,3.88
2022-10-10T12:05:56.680Z,4.10
2022-10-10T12:08:30.960Z,3.95
2022-10-10T12:11:04.622Z,3.88
2022-10-10T12:13:35.773Z,3.90
2022-10-10T12:16:10.373Z,3.17
2022-10-10T12:18:41.753Z,3.60
2022-10-10T12:21:09.707Z,3.63
2022-10-10T12:23:36.448Z,3.30
2022-10-10T12:26:03.373Z,3.33
2022-10-10T12:28:48.867Z,4.03
2022-10-10T12:31:15.369Z,3.72
2022-10-10T12:33:45.095Z,3.45
2022-10-10T12:36:20.586Z,2.95
2022-10-10T12:39:09.202Z,3.20
2022-10-10T12:41:58.879Z,3.13
2022-10-10T12:44:41.456Z,3.10
2022-10-10T12:47:13.895Z,3.05
2022-10-10T12:49:50.338Z,3.25
2022-10-10T12:52:21.753Z,2.80
2022-10-10T12:54:48.842Z,2.53
2022-10-10T12:57:15.426Z,2.65
2022-10-10T12:59:42.100Z,2.40
2022-10-10T13:02:27.865Z,2.58
2022-10-10T13:04:56.663Z,2.80
2022-10-10T13:07:23.333Z,3.00
2022-10-10T13:09:51.061Z,2.83
2022-10-10T13:12:35.785Z,2.90
2022-10-10T13:15:02.184Z,2.50
2022-10-10T13:17:30.183Z,2.55
2022-10-10T13:19:57.926Z,2.83
2022-10-10T13:22:24.913Z,2.60
2022-10-10T13:24:51.876Z,2.70
2022-10-10T13:27:18.335Z,2.50
2022-10-10T13:29:44.951Z,2.70
2022-10-10T13:32:13.931Z,2.38
2022-10-10T13:34:45.557Z,2.85
2022-10-10T13:37:15.067Z,2.90
2022-10-10T13:39:41.735Z,2.75
2022-10-10T13:42:16.386Z,2.53
2022-10-10T13:44:47.785Z,3.00
2022-10-10T13:47:33.159Z,2.80
2022-10-10T13:49:59.849Z,2.95
2022-10-10T13:52:26.235Z,2.90
2022-10-10T13:54:52.683Z,3.10
2022-10-10T13:57:30.462Z,3.10
2022-10-10T14:00:01.633Z,2.65
2022-10-10T14:02:34.017Z,2.80
2022-10-10T14:05:05.211Z,3.35
2022-10-10T14:07:31.823Z,2.88
2022-10-10T14:09:59.874Z,2.92
2022-10-10T14:12:28.695Z,3.17
2022-10-10T14:14:57.392Z,2.75
2022-10-10T14:17:24.258Z,2.55
2022-10-10T14:19:50.720Z,3.10
2022-10-10T14:22:17.726Z,2.90
2022-10-10T14:24:44.184Z,3.00
2022-10-10T14:27:22.929Z,3.05
2022-10-10T14:29:49.786Z,3.08
2022-10-10T14:32:16.348Z,2.75
2022-10-10T14:34:42.790Z,2.67
2022-10-10T14:37:38.622Z,3.38
2022-10-10T14:40:25.435Z,2.88
2022-10-10T14:42:51.852Z,3.20
2022-10-10T14:45:18.528Z,3.05
2022-10-10T14:47:44.993Z,3.22
2022-10-10T14:50:22.478Z,3.00
2022-10-10T14:52:48.920Z,3.17
2022-10-10T14:55:15.448Z,3.30
2022-10-10T14:57:41.820Z,3.30
2022-10-10T15:00:11.838Z,3.10
2022-10-10T15:02:43.202Z,3.20
2022-10-10T15:05:11.867Z,2.97
2022-10-10T15:07:38.285Z,2.90
2022-10-10T15:10:33.400Z,3.13
2022-10-10T15:12:51.263Z,3.00
2022-10-10T15:15:17.767Z,3.10
2022-10-10T15:17:47.865Z,2.85
2022-10-10T15:20:14.449Z,3.10
2022-10-10T15:22:41.403Z,3.08
2022-10-10T15:25:08.596Z,3.10
2022-10-10T15:27:36.162Z,2.58
2022-10-10T15:30:02.696Z,2.80
2022-10-10T15:32:29.090Z,3.00
2022-10-10T15:34:55.560Z,2.88
2022-10-10T15:37:23.960Z,2.88
2022-10-10T15:39:50.346Z,3.00
2022-10-10T15:42:22.689Z,2.92
2022-10-10T15:44:50.516Z,2.53
2022-10-10T15:47:17.446Z,3.15
2022-10-10T15:49:43.913Z,2.95
2022-10-10T15:52:10.803Z,3.22
2022-10-10T15:54:37.243Z,3.30
2022-10-10T15:57:03.736Z,3.25
2022-10-10T15:59:30.447Z,3.00
2022-10-10T16:01:56.991Z,2.88
2022-10-10T16:04:23.516Z,3.15
2022-10-10T16:06:54.396Z,3.10
2022-10-10T16:09:35.268Z,3.05
2022-10-10T16:12:01.998Z,2.60
2022-10-10T16:14:28.823Z,3.00
2022-10-10T16:16:55.499Z,3.35
2022-10-10T16:19:21.965Z,3.40
2022-10-10T16:21:48.384Z,2.85
2022-10-10T16:24:14.917Z,2.72
2022-10-10T16:26:41.486Z,2.90
2022-10-10T16:29:08.759Z,2.95
2022-10-10T16:31:36.671Z,2.90
2022-10-10T16:34:03.145Z,2.80
2022-10-10T16:36:31.227Z,2.83
2022-10-10T16:38:58.318Z,3.03
2022-10-10T16:41:48.497Z,2.67
2022-10-10T16:44:16.158Z,2.67
2022-10-10T16:46:42.609Z,2.63
2022-10-10T16:49:09.594Z,2.60
2022-10-10T16:51:37.040Z,2.63
2022-10-10T16:54:05.163Z,2.75
2022-10-10T16:56:31.739Z,2.97
2022-10-10T16:58:59.279Z,3.20
2022-10-10T17:01:25.986Z,2.95
2022-10-10T17:03:52.799Z,3.20
2022-10-10T17:06:20.770Z,3.22
2022-10-10T17:08:47.982Z,3.28
2022-10-10T17:11:14.995Z,3.45
2022-10-10T17:13:41.939Z,3.55
2022-10-10T17:16:47.768Z,3.45
2022-10-10T17:18:56.012Z,3.78
2022-10-10T17:21:23.567Z,3.60
2022-10-10T17:23:50.508Z,3.78
2022-10-10T17:26:18.846Z,3.80
2022-10-10T17:28:45.434Z,3.67
2022-10-10T17:31:14.964Z,3.90
2022-10-10T17:33:42.249Z,4.03
2022-10-10T17:36:09.935Z,3.70
2022-10-10T17:38:40.031Z,4.25
2022-10-10T17:41:07.807Z,3.85
2022-10-10T17:43:34.658Z,4.20
2022-10-10T17:46:36.400Z,3.55
2022-10-10T17:49:04.456Z,3.90
2022-10-10T17:51:31.023Z,4.20
2022-10-10T17:53:59.396Z,4.13
2022-10-10T17:56:25.828Z,3.50
2022-10-10T17:58:52.254Z,3.97
2022-10-10T18:01:19.664Z,3.80
2022-10-10T18:03:46.696Z,3.60
2022-10-10T18:06:14.767Z,3.50
2022-10-10T18:08:41.199Z,4.20
2022-10-10T18:11:14.731Z,3.97
2022-10-10T18:13:41.201Z,3.65
2022-10-10T18:16:18.878Z,4.13
2022-10-10T18:18:50.981Z,3.50
2022-10-10T18:21:18.676Z,3.88
2022-10-10T18:23:45.516Z,3.75
2022-10-10T18:26:13.466Z,3.60
2022-10-10T18:28:42.999Z,3.42
2022-10-10T18:31:13.449Z,3.40
2022-10-10T18:33:41.006Z,3.70
2022-10-10T18:36:11.360Z,3.60
2022-10-10T18:38:37.924Z,3.35
2022-10-10T18:41:20.479Z,3.83
2022-10-10T18:43:47.194Z,3.95
2022-10-10T18:46:19.930Z,3.88
2022-10-10T18:48:50.268Z,3.45
2022-10-10T18:51:24.663Z,3.67
2022-10-10T18:53:52.068Z,3.55
2022-10-10T18:56:25.105Z,3.70
2022-10-10T18:59:00.644Z,3.60
2022-10-10T19:01:27.976Z,3.70
2022-10-10T19:03:55.053Z,3.60
2022-10-10T19:06:22.433Z,3.72
2022-10-10T19:08:51.049Z,3.55
2022-10-10T19:11:19.476Z,3.63
2022-10-10T19:13:46.052Z,3.38
2022-10-10T19:16:12.431Z,3.60
2022-10-10T19:18:38.884Z,2.88
2022-10-10T19:21:06.244Z,3.30
2022-10-10T19:23:33.390Z,3.17
2022-10-10T19:26:04.040Z,3.15
2022-10-10T19:28:31.008Z,3.10
2022-10-10T19:30:58.194Z,3.30
2022-10-10T19:33:24.748Z,3.47
2022-10-10T19:35:52.321Z,3.60
2022-10-10T19:38:19.376Z,3.33
2022-10-10T19:40:46.468Z,3.10
2022-10-10T19:43:12.967Z,2.90
2022-10-10T19:45:43.469Z,3.28
2022-10-10T19:48:09.986Z,3.38
2022-10-10T19:50:40.304Z,3.20
2022-10-10T19:53:07.193Z,3.25
2022-10-10T19:55:33.804Z,2.95
2022-10-10T19:58:00.216Z,3.30
2022-10-10T20:00:26.730Z,3.25
2022-10-10T20:02:53.121Z,3.00
2022-10-10T20:05:20.577Z,3.00
2022-10-10T20:07:51.971Z,2.95
2022-10-10T20:10:19.085Z,2.60
2022-10-10T20:12:45.984Z,2.70
2022-10-10T20:15:12.800Z,2.78
2022-10-10T20:17:39.254Z,3.20
2022-10-10T20:20:05.875Z,3.20
2022-10-10T20:22:33.085Z,3.03
2022-10-10T20:24:59.510Z,2.80
2022-10-10T20:27:30.826Z,3.00
2022-10-10T20:29:57.778Z,3.10
2022-10-10T20:32:26.769Z,2.83
2022-10-10T20:35:05.369Z,2.80
2022-10-10T20:37:34.411Z,2.88
2022-10-10T20:40:01.142Z,2.70
2022-10-10T20:42:27.594Z,3.08
2022-10-10T20:44:54.724Z,3.25
2022-10-10T20:47:25.314Z,2.60
2022-10-10T20:49:54.486Z,3.05
2022-10-10T20:52:21.517Z,2.90
2022-10-10T20:54:48.006Z,3.13
2022-10-10T20:57:14.513Z,2.80
2022-10-10T20:59:41.137Z,3.08
2022-10-10T21:02:08.992Z,3.00
2022-10-10T21:04:35.481Z,2.92
2022-10-10T21:07:06.855Z,3.08
2022-10-10T21:09:37.598Z,3.15
2022-10-10T21:12:04.094Z,3.08
2022-10-10T21:14:30.536Z,2.60
2022-10-10T21:16:57.274Z,3.10
2022-10-10T21:19:26.134Z,2.75
2022-10-10T21:21:53.748Z,2.47
2022-10-10T21:24:20.284Z,2.42
2022-10-10T21:26:49.090Z,2.70
2022-10-10T21:29:15.719Z,2.38
2022-10-10T21:31:45.759Z,3.00
2022-10-10T21:34:13.864Z,2.70
2022-10-10T21:36:40.561Z,3.00
2022-10-10T21:39:07.072Z,2.67
2022-10-10T21:41:34.103Z,2.50
2022-10-10T21:44:01.356Z,2.95
2022-10-10T21:46:35.966Z,2.40
2022-10-10T21:49:04.974Z,2.80
2022-10-10T21:51:34.563Z,2.53
2022-10-10T21:54:00.979Z,2.63
2022-10-10T21:56:27.365Z,2.45
2022-10-10T21:58:58.699Z,2.67
2022-10-10T22:01:27.528Z,2.63
2022-10-10T22:03:54.227Z,2.75
2022-10-10T22:06:21.561Z,2.40
2022-10-10T22:08:48.419Z,2.42
2022-10-10T22:11:16.440Z,2.47
2022-10-10T22:13:43.046Z,2.70
2022-10-10T22:16:09.817Z,2.78
2022-10-10T22:18:36.982Z,2.47
2022-10-10T22:21:04.830Z,2.70
2022-10-10T22:23:31.247Z,2.55
2022-10-10T22:25:57.682Z,2.10
2022-10-10T22:28:24.449Z,2.60
2022-10-10T22:30:50.918Z,2.47
2022-10-10T22:33:17.309Z,2.33
2022-10-10T22:35:43.777Z,2.35
2022-10-10T22:38:10.235Z,2.47
2022-10-10T22:40:36.703Z,2.47
2022-10-10T22:43:03.177Z,2.28
2022-10-10T22:45:29.611Z,2.40
2022-10-10T22:47:56.026Z,2.40
2022-10-10T22:50:22.595Z,2.17
2022-10-10T22:52:49.303Z,2.42
2022-10-10T22:55:18.414Z,2.67
2022-10-10T22:57:46.122Z,2.50
2022-10-10T23:00:12.953Z,2.28
2022-10-10T23:02:39.330Z,1.77
2022-10-10T23:05:06.039Z,2.20
2022-10-10T23:07:32.624Z,1.90
2022-10-10T23:09:59.037Z,2.08
2022-10-10T23:12:25.548Z,2.40
2022-10-10T23:14:52.002Z,2.20
2022-10-10T23:17:18.448Z,2.15
2022-10-10T23:19:44.847Z,1.90
2022-10-10T23:22:12.897Z,2.20
2022-10-10T23:24:39.586Z,2.53
2022-10-10T23:27:06.099Z,2.10
2022-10-10T23:29:32.995Z,2.30
2022-10-10T23:31:59.434Z,1.80
2022-10-10T23:34:26.991Z,2.15
2022-10-10T23:36:53.368Z,2.15
2022-10-10T23:39:19.783Z,2.03
2022-10-10T23:41:46.279Z,2.20
2022-10-10T23:44:12.658Z,2.03
2022-10-10T23:46:39.074Z,1.77
2022-10-10T23:49:05.514Z,1.83
2022-10-10T23:51:32.219Z,1.83
2022-10-10T23:53:58.686Z,1.90
2022-10-10T23:56:25.093Z,1.80
2022-10-10T23:58:51.513Z,1.90
